sensor_id;sensor_type;location;lat;lon;timestamp;P1;durP1;ratioP1;P2;durP2;ratioP2
9294;SDS011;4686;44.496;11.324;2023-02-26T00:00:05;51.50;;;33.40;;
9294;SDS011;4686;44.496;11.324;2023-02-26T00:02:36;47.37;;;31.87;;
9294;SDS011;4686;44.496;11.324;2023-02-26T00:05:03;40.80;;;29.70;;
9294;SDS011;4686;44.496;11.324;2023-02-26T00:07:31;46.13;;;30.47;;
9294;SDS011;4686;44.496;11.324;2023-02-26T00:09:58;46.30;;;30.87;;
9294;SDS011;4686;44.496;11.324;2023-02-26T00:12:28;40.90;;;29.40;;
9294;SDS011;4686;44.496;11.324;2023-02-26T00:14:55;46.43;;;29.73;;
9294;SDS011;4686;44.496;11.324;2023-02-26T00:17:29;44.73;;;29.87;;
9294;SDS011;4686;44.496;11.324;2023-02-26T00:19:58;42.47;;;29.30;;
9294;SDS011;4686;44.496;11.324;2023-02-26T00:22:26;46.87;;;31.80;;
9294;SDS011;4686;44.496;11.324;2023-02-26T00:24:53;46.57;;;30.40;;
9294;SDS011;4686;44.496;11.324;2023-02-26T00:27:20;42.90;;;29.93;;
9294;SDS011;4686;44.496;11.324;2023-02-26T00:29:49;43.10;;;31.17;;
9294;SDS011;4686;44.496;11.324;2023-02-26T00:32:18;47.50;;;31.63;;
9294;SDS011;4686;44.496;11.324;2023-02-26T00:34:45;48.57;;;31.60;;
9294;SDS011;4686;44.496;11.324;2023-02-26T00:37:15;51.23;;;32.50;;
9294;SDS011;4686;44.496;11.324;2023-02-26T00:39:47;47.63;;;32.47;;
9294;SDS011;4686;44.496;11.324;2023-02-26T00:42:17;49.67;;;32.00;;
9294;SDS011;4686;44.496;11.324;2023-02-26T00:44:44;47.80;;;32.00;;
9294;SDS011;4686;44.496;11.324;2023-02-26T00:47:16;45.53;;;30.23;;
9294;SDS011;4686;44.496;11.324;2023-02-26T00:49:47;45.60;;;30.83;;
9294;SDS011;4686;44.496;11.324;2023-02-26T00:52:18;50.03;;;29.63;;
9294;SDS011;4686;44.496;11.324;2023-02-26T00:54:46;41.23;;;29.97;;
9294;SDS011;4686;44.496;11.324;2023-02-26T00:57:13;46.50;;;29.77;;
9294;SDS011;4686;44.496;11.324;2023-02-26T00:59:41;42.37;;;29.60;;
9294;SDS011;4686;44.496;11.324;2023-02-26T01:02:08;49.00;;;31.10;;
9294;SDS011;4686;44.496;11.324;2023-02-26T01:04:37;45.30;;;32.30;;
9294;SDS011;4686;44.496;11.324;2023-02-26T01:07:10;53.90;;;32.23;;
9294;SDS011;4686;44.496;11.324;2023-02-26T01:09:37;47.93;;;32.57;;
9294;SDS011;4686;44.496;11.324;2023-02-26T01:12:06;51.30;;;31.97;;
9294;SDS011;4686;44.496;11.324;2023-02-26T01:14:44;52.17;;;35.57;;
9294;SDS011;4686;44.496;11.324;2023-02-26T01:17:13;63.37;;;36.20;;
9294;SDS011;4686;44.496;11.324;2023-02-26T01:19:43;57.17;;;35.17;;
9294;SDS011;4686;44.496;11.324;2023-02-26T01:22:12;50.97;;;35.53;;
9294;SDS011;4686;44.496;11.324;2023-02-26T01:24:41;59.27;;;38.53;;
9294;SDS011;4686;44.496;11.324;2023-02-26T01:27:11;59.57;;;35.07;;
9294;SDS011;4686;44.496;11.324;2023-02-26T01:29:38;53.20;;;37.47;;
9294;SDS011;4686;44.496;11.324;2023-02-26T01:32:07;61.70;;;37.13;;
9294;SDS011;4686;44.496;11.324;2023-02-26T01:34:36;55.87;;;35.80;;
9294;SDS011;4686;44.496;11.324;2023-02-26T01:37:10;56.77;;;38.13;;
9294;SDS011;4686;44.496;11.324;2023-02-26T01:39:41;54.10;;;37.70;;
9294;SDS011;4686;44.496;11.324;2023-02-26T01:42:12;59.77;;;38.20;;
9294;SDS011;4686;44.496;11.324;2023-02-26T01:44:41;64.37;;;38.83;;
9294;SDS011;4686;44.496;11.324;2023-02-26T01:47:12;59.73;;;36.77;;
9294;SDS011;4686;44.496;11.324;2023-02-26T01:49:42;54.80;;;39.17;;
9294;SDS011;4686;44.496;11.324;2023-02-26T01:54:58;76.57;;;47.57;;
9294;SDS011;4686;44.496;11.324;2023-02-26T01:57:26;77.70;;;48.10;;
9294;SDS011;4686;44.496;11.324;2023-02-26T01:59:53;78.17;;;50.57;;
9294;SDS011;4686;44.496;11.324;2023-02-26T02:02:21;80.57;;;51.43;;
9294;SDS011;4686;44.496;11.324;2023-02-26T02:04:49;84.70;;;52.13;;
9294;SDS011;4686;44.496;11.324;2023-02-26T02:07:16;82.60;;;52.87;;
9294;SDS011;4686;44.496;11.324;2023-02-26T02:09:44;82.67;;;52.37;;
9294;SDS011;4686;44.496;11.324;2023-02-26T02:12:20;83.33;;;52.67;;
9294;SDS011;4686;44.496;11.324;2023-02-26T02:14:52;82.10;;;49.67;;
9294;SDS011;4686;44.496;11.324;2023-02-26T02:17:23;78.27;;;51.67;;
9294;SDS011;4686;44.496;11.324;2023-02-26T02:25:50;86.33;;;51.53;;
9294;SDS011;4686;44.496;11.324;2023-02-26T02:28:25;77.80;;;53.30;;
9294;SDS011;4686;44.496;11.324;2023-02-26T02:31:00;85.13;;;53.20;;
9294;SDS011;4686;44.496;11.324;2023-02-26T02:33:32;81.70;;;51.10;;
9294;SDS011;4686;44.496;11.324;2023-02-26T02:36:01;85.93;;;53.93;;
9294;SDS011;4686;44.496;11.324;2023-02-26T02:38:32;74.83;;;50.23;;
9294;SDS011;4686;44.496;11.324;2023-02-26T02:41:04;82.70;;;51.80;;
9294;SDS011;4686;44.496;11.324;2023-02-26T02:43:32;76.60;;;50.87;;
9294;SDS011;4686;44.496;11.324;2023-02-26T02:46:02;69.37;;;47.70;;
9294;SDS011;4686;44.496;11.324;2023-02-26T02:48:31;75.00;;;49.37;;
9294;SDS011;4686;44.496;11.324;2023-02-26T02:51:00;72.10;;;49.33;;
9294;SDS011;4686;44.496;11.324;2023-02-26T02:53:29;59.00;;;42.07;;
9294;SDS011;4686;44.496;11.324;2023-02-26T02:56:01;61.30;;;42.17;;
9294;SDS011;4686;44.496;11.324;2023-02-26T02:58:43;53.73;;;39.83;;
9294;SDS011;4686;44.496;11.324;2023-02-26T03:01:15;51.53;;;37.03;;
9294;SDS011;4686;44.496;11.324;2023-02-26T03:03:46;73.27;;;46.10;;
9294;SDS011;4686;44.496;11.324;2023-02-26T03:06:15;69.73;;;44.97;;
9294;SDS011;4686;44.496;11.324;2023-02-26T03:08:43;71.17;;;47.23;;
9294;SDS011;4686;44.496;11.324;2023-02-26T03:11:12;69.97;;;45.60;;
9294;SDS011;4686;44.496;11.324;2023-02-26T03:13:39;75.13;;;49.90;;
9294;SDS011;4686;44.496;11.324;2023-02-26T03:16:19;78.93;;;48.70;;
9294;SDS011;4686;44.496;11.324;2023-02-26T03:18:49;63.17;;;45.40;;
9294;SDS011;4686;44.496;11.324;2023-02-26T03:21:20;64.93;;;47.60;;
9294;SDS011;4686;44.496;11.324;2023-02-26T03:23:51;72.53;;;49.03;;
9294;SDS011;4686;44.496;11.324;2023-02-26T03:26:21;63.90;;;47.07;;
9294;SDS011;4686;44.496;11.324;2023-02-26T03:28:50;61.57;;;43.40;;
9294;SDS011;4686;44.496;11.324;2023-02-26T03:31:21;59.53;;;42.60;;
9294;SDS011;4686;44.496;11.324;2023-02-26T03:33:51;66.90;;;47.37;;
9294;SDS011;4686;44.496;11.324;2023-02-26T03:36:21;50.57;;;34.53;;
9294;SDS011;4686;44.496;11.324;2023-02-26T03:38:52;26.27;;;19.87;;
9294;SDS011;4686;44.496;11.324;2023-02-26T03:41:21;12.20;;;9.97;;
9294;SDS011;4686;44.496;11.324;2023-02-26T03:43:52;8.43;;;7.60;;
9294;SDS011;4686;44.496;11.324;2023-02-26T03:46:24;8.23;;;6.73;;
9294;SDS011;4686;44.496;11.324;2023-02-26T03:48:52;7.07;;;5.77;;
9294;SDS011;4686;44.496;11.324;2023-02-26T03:51:21;6.17;;;5.17;;
9294;SDS011;4686;44.496;11.324;2023-02-26T03:53:51;5.13;;;4.73;;
9294;SDS011;4686;44.496;11.324;2023-02-26T03:56:21;4.40;;;4.10;;
9294;SDS011;4686;44.496;11.324;2023-02-26T03:58:50;9.10;;;7.60;;
9294;SDS011;4686;44.496;11.324;2023-02-26T04:01:19;4.50;;;4.10;;
9294;SDS011;4686;44.496;11.324;2023-02-26T04:03:49;4.73;;;3.87;;
9294;SDS011;4686;44.496;11.324;2023-02-26T04:06:18;10.20;;;8.00;;
9294;SDS011;4686;44.496;11.324;2023-02-26T04:08:46;4.03;;;3.60;;
9294;SDS011;4686;44.496;11.324;2023-02-26T04:11:14;5.40;;;4.60;;
9294;SDS011;4686;44.496;11.324;2023-02-26T04:13:42;7.97;;;5.97;;
9294;SDS011;4686;44.496;11.324;2023-02-26T04:16:09;6.90;;;6.30;;
9294;SDS011;4686;44.496;11.324;2023-02-26T04:18:36;7.83;;;7.13;;
9294;SDS011;4686;44.496;11.324;2023-02-26T04:21:06;4.77;;;4.37;;
9294;SDS011;4686;44.496;11.324;2023-02-26T04:23:34;4.50;;;4.20;;
9294;SDS011;4686;44.496;11.324;2023-02-26T04:26:01;4.27;;;4.03;;
9294;SDS011;4686;44.496;11.324;2023-02-26T04:28:28;4.33;;;3.90;;
9294;SDS011;4686;44.496;11.324;2023-02-26T04:30:55;10.03;;;5.77;;
9294;SDS011;4686;44.496;11.324;2023-02-26T04:33:23;4.30;;;4.07;;
9294;SDS011;4686;44.496;11.324;2023-02-26T04:35:50;3.87;;;3.67;;
9294;SDS011;4686;44.496;11.324;2023-02-26T04:38:19;4.20;;;3.90;;
9294;SDS011;4686;44.496;11.324;2023-02-26T04:40:47;3.93;;;3.73;;
9294;SDS011;4686;44.496;11.324;2023-02-26T04:43:14;4.50;;;4.10;;
9294;SDS011;4686;44.496;11.324;2023-02-26T04:45:43;4.63;;;4.23;;
9294;SDS011;4686;44.496;11.324;2023-02-26T04:48:11;8.73;;;7.73;;
9294;SDS011;4686;44.496;11.324;2023-02-26T04:50:38;3.63;;;3.37;;
9294;SDS011;4686;44.496;11.324;2023-02-26T04:53:05;4.57;;;4.27;;
9294;SDS011;4686;44.496;11.324;2023-02-26T04:55:35;4.17;;;3.87;;
9294;SDS011;4686;44.496;11.324;2023-02-26T04:58:03;5.13;;;4.77;;
9294;SDS011;4686;44.496;11.324;2023-02-26T05:00:30;4.50;;;4.03;;
9294;SDS011;4686;44.496;11.324;2023-02-26T05:02:57;4.70;;;4.30;;
9294;SDS011;4686;44.496;11.324;2023-02-26T05:05:26;4.33;;;4.00;;
9294;SDS011;4686;44.496;11.324;2023-02-26T05:07:53;5.43;;;5.03;;
9294;SDS011;4686;44.496;11.324;2023-02-26T05:10:21;4.60;;;4.30;;
9294;SDS011;4686;44.496;11.324;2023-02-26T05:12:49;5.20;;;4.80;;
9294;SDS011;4686;44.496;11.324;2023-02-26T05:15:16;8.83;;;4.37;;
9294;SDS011;4686;44.496;11.324;2023-02-26T05:17:44;6.40;;;5.80;;
9294;SDS011;4686;44.496;11.324;2023-02-26T05:20:11;6.13;;;3.40;;
9294;SDS011;4686;44.496;11.324;2023-02-26T05:22:39;4.33;;;4.03;;
9294;SDS011;4686;44.496;11.324;2023-02-26T05:25:07;5.03;;;4.70;;
9294;SDS011;4686;44.496;11.324;2023-02-26T05:27:36;4.73;;;4.20;;
9294;SDS011;4686;44.496;11.324;2023-02-26T05:30:06;3.87;;;3.67;;
9294;SDS011;4686;44.496;11.324;2023-02-26T05:32:33;4.30;;;4.00;;
9294;SDS011;4686;44.496;11.324;2023-02-26T05:35:01;4.00;;;3.80;;
9294;SDS011;4686;44.496;11.324;2023-02-26T05:37:28;5.30;;;4.90;;
9294;SDS011;4686;44.496;11.324;2023-02-26T05:39:56;4.10;;;3.80;;
9294;SDS011;4686;44.496;11.324;2023-02-26T05:42:24;4.10;;;3.80;;
9294;SDS011;4686;44.496;11.324;2023-02-26T05:44:51;4.97;;;4.67;;
9294;SDS011;4686;44.496;11.324;2023-02-26T05:47:19;4.40;;;4.10;;
9294;SDS011;4686;44.496;11.324;2023-02-26T05:49:47;6.03;;;3.93;;
9294;SDS011;4686;44.496;11.324;2023-02-26T05:52:14;4.67;;;4.37;;
9294;SDS011;4686;44.496;11.324;2023-02-26T05:54:41;7.00;;;4.13;;
9294;SDS011;4686;44.496;11.324;2023-02-26T05:57:08;4.10;;;3.80;;
9294;SDS011;4686;44.496;11.324;2023-02-26T05:59:35;3.90;;;3.70;;
9294;SDS011;4686;44.496;11.324;2023-02-26T06:02:03;9.20;;;4.60;;
9294;SDS011;4686;44.496;11.324;2023-02-26T06:04:32;4.30;;;4.10;;
9294;SDS011;4686;44.496;11.324;2023-02-26T06:06:59;4.60;;;4.03;;
9294;SDS011;4686;44.496;11.324;2023-02-26T06:09:27;4.30;;;4.00;;
9294;SDS011;4686;44.496;11.324;2023-02-26T06:11:54;4.40;;;4.10;;
9294;SDS011;4686;44.496;11.324;2023-02-26T06:14:21;4.07;;;3.87;;
9294;SDS011;4686;44.496;11.324;2023-02-26T06:16:49;5.60;;;5.10;;
9294;SDS011;4686;44.496;11.324;2023-02-26T06:19:16;4.73;;;4.30;;
9294;SDS011;4686;44.496;11.324;2023-02-26T06:21:46;5.47;;;4.97;;
9294;SDS011;4686;44.496;11.324;2023-02-26T06:24:14;4.40;;;4.10;;
9294;SDS011;4686;44.496;11.324;2023-02-26T06:26:41;6.80;;;4.07;;
9294;SDS011;4686;44.496;11.324;2023-02-26T06:29:08;6.03;;;4.10;;
9294;SDS011;4686;44.496;11.324;2023-02-26T06:31:36;5.47;;;4.20;;
9294;SDS011;4686;44.496;11.324;2023-02-26T06:34:03;7.57;;;5.37;;
9294;SDS011;4686;44.496;11.324;2023-02-26T06:36:30;4.40;;;4.10;;
9294;SDS011;4686;44.496;11.324;2023-02-26T06:38:59;6.67;;;4.80;;
9294;SDS011;4686;44.496;11.324;2023-02-26T06:41:26;5.63;;;5.03;;
9294;SDS011;4686;44.496;11.324;2023-02-26T06:43:53;9.27;;;4.50;;
9294;SDS011;4686;44.496;11.324;2023-02-26T06:46:20;4.13;;;3.93;;
9294;SDS011;4686;44.496;11.324;2023-02-26T06:48:47;5.13;;;4.63;;
9294;SDS011;4686;44.496;11.324;2023-02-26T06:51:15;4.30;;;4.00;;
9294;SDS011;4686;44.496;11.324;2023-02-26T06:53:42;4.80;;;4.50;;
9294;SDS011;4686;44.496;11.324;2023-02-26T06:56:11;5.90;;;5.40;;
9294;SDS011;4686;44.496;11.324;2023-02-26T06:58:38;3.87;;;3.57;;
9294;SDS011;4686;44.496;11.324;2023-02-26T07:01:05;5.53;;;4.37;;
9294;SDS011;4686;44.496;11.324;2023-02-26T07:03:33;4.07;;;3.77;;
9294;SDS011;4686;44.496;11.324;2023-02-26T07:06:00;4.03;;;3.83;;
9294;SDS011;4686;44.496;11.324;2023-02-26T07:08:27;4.37;;;4.07;;
9294;SDS011;4686;44.496;11.324;2023-02-26T07:10:54;4.57;;;4.17;;
9294;SDS011;4686;44.496;11.324;2023-02-26T07:13:23;4.40;;;4.10;;
9294;SDS011;4686;44.496;11.324;2023-02-26T07:15:50;6.60;;;4.20;;
9294;SDS011;4686;44.496;11.324;2023-02-26T07:18:17;4.73;;;4.47;;
9294;SDS011;4686;44.496;11.324;2023-02-26T07:20:44;5.70;;;3.90;;
9294;SDS011;4686;44.496;11.324;2023-02-26T07:23:14;4.10;;;3.90;;
9294;SDS011;4686;44.496;11.324;2023-02-26T07:25:41;4.10;;;3.80;;
9294;SDS011;4686;44.496;11.324;2023-02-26T07:28:08;8.40;;;4.90;;
9294;SDS011;4686;44.496;11.324;2023-02-26T07:30:37;4.40;;;4.00;;
9294;SDS011;4686;44.496;11.324;2023-02-26T07:33:06;4.47;;;4.00;;
9294;SDS011;4686;44.496;11.324;2023-02-26T07:35:33;5.90;;;4.60;;
9294;SDS011;4686;44.496;11.324;2023-02-26T07:38:00;4.47;;;4.17;;
9294;SDS011;4686;44.496;11.324;2023-02-26T07:40:27;4.00;;;3.80;;
9294;SDS011;4686;44.496;11.324;2023-02-26T07:42:54;4.23;;;3.80;;
9294;SDS011;4686;44.496;11.324;2023-02-26T07:45:22;4.13;;;3.93;;
9294;SDS011;4686;44.496;11.324;2023-02-26T07:47:50;4.77;;;4.40;;
9294;SDS011;4686;44.496;11.324;2023-02-26T07:50:18;4.40;;;4.10;;
9294;SDS011;4686;44.496;11.324;2023-02-26T07:52:49;4.43;;;4.03;;
9294;SDS011;4686;44.496;11.324;2023-02-26T07:55:17;4.20;;;3.90;;
9294;SDS011;4686;44.496;11.324;2023-02-26T07:57:45;4.60;;;4.30;;
9294;SDS011;4686;44.496;11.324;2023-02-26T08:00:13;7.33;;;4.87;;
9294;SDS011;4686;44.496;11.324;2023-02-26T08:02:40;10.40;;;4.10;;
9294;SDS011;4686;44.496;11.324;2023-02-26T08:05:09;7.70;;;4.77;;
9294;SDS011;4686;44.496;11.324;2023-02-26T08:07:36;4.63;;;4.23;;
9294;SDS011;4686;44.496;11.324;2023-02-26T08:10:03;4.50;;;4.10;;
9294;SDS011;4686;44.496;11.324;2023-02-26T08:12:31;4.83;;;4.33;;
9294;SDS011;4686;44.496;11.324;2023-02-26T08:14:58;5.00;;;4.40;;
9294;SDS011;4686;44.496;11.324;2023-02-26T08:17:25;4.40;;;4.10;;
9294;SDS011;4686;44.496;11.324;2023-02-26T08:19:53;4.40;;;4.10;;
9294;SDS011;4686;44.496;11.324;2023-02-26T08:22:21;4.10;;;3.70;;
9294;SDS011;4686;44.496;11.324;2023-02-26T08:24:49;4.10;;;3.80;;
9294;SDS011;4686;44.496;11.324;2023-02-26T08:27:16;4.00;;;3.70;;
9294;SDS011;4686;44.496;11.324;2023-02-26T08:29:43;6.83;;;5.07;;
9294;SDS011;4686;44.496;11.324;2023-02-26T08:32:14;4.17;;;3.73;;
9294;SDS011;4686;44.496;11.324;2023-02-26T08:34:42;7.50;;;3.90;;
9294;SDS011;4686;44.496;11.324;2023-02-26T08:37:09;4.57;;;4.27;;
9294;SDS011;4686;44.496;11.324;2023-02-26T08:39:38;6.33;;;3.90;;
9294;SDS011;4686;44.496;11.324;2023-02-26T08:42:05;7.50;;;5.33;;
9294;SDS011;4686;44.496;11.324;2023-02-26T08:44:33;5.93;;;4.70;;
9294;SDS011;4686;44.496;11.324;2023-02-26T08:47:00;4.97;;;4.47;;
9294;SDS011;4686;44.496;11.324;2023-02-26T08:49:28;4.67;;;4.27;;
9294;SDS011;4686;44.496;11.324;2023-02-26T08:51:55;5.30;;;4.90;;
9294;SDS011;4686;44.496;11.324;2023-02-26T08:54:22;12.50;;;7.10;;
9294;SDS011;4686;44.496;11.324;2023-02-26T08:56:50;8.53;;;6.50;;
9294;SDS011;4686;44.496;11.324;2023-02-26T08:59:20;8.23;;;5.20;;
9294;SDS011;4686;44.496;11.324;2023-02-26T09:01:47;10.53;;;8.33;;
9294;SDS011;4686;44.496;11.324;2023-02-26T09:04:15;7.87;;;7.07;;
9294;SDS011;4686;44.496;11.324;2023-02-26T09:06:42;5.57;;;5.17;;
9294;SDS011;4686;44.496;11.324;2023-02-26T09:09:09;7.20;;;5.50;;
9294;SDS011;4686;44.496;11.324;2023-02-26T09:11:36;6.00;;;5.20;;
9294;SDS011;4686;44.496;11.324;2023-02-26T09:14:06;7.07;;;5.50;;
9294;SDS011;4686;44.496;11.324;2023-02-26T09:16:33;9.60;;;5.27;;
9294;SDS011;4686;44.496;11.324;2023-02-26T09:19:01;5.43;;;4.80;;
9294;SDS011;4686;44.496;11.324;2023-02-26T09:21:29;11.10;;;6.87;;
9294;SDS011;4686;44.496;11.324;2023-02-26T09:23:56;8.17;;;4.57;;
9294;SDS011;4686;44.496;11.324;2023-02-26T09:26:23;11.03;;;5.63;;
9294;SDS011;4686;44.496;11.324;2023-02-26T09:28:51;6.07;;;4.73;;
9294;SDS011;4686;44.496;11.324;2023-02-26T09:31:19;9.97;;;6.23;;
9294;SDS011;4686;44.496;11.324;2023-02-26T09:33:47;6.20;;;5.57;;
9294;SDS011;4686;44.496;11.324;2023-02-26T09:36:14;11.07;;;8.70;;
9294;SDS011;4686;44.496;11.324;2023-02-26T09:38:41;10.17;;;6.93;;
9294;SDS011;4686;44.496;11.324;2023-02-26T09:41:13;7.63;;;5.43;;
9294;SDS011;4686;44.496;11.324;2023-02-26T09:46:40;7.90;;;5.60;;
9294;SDS011;4686;44.496;11.324;2023-02-26T09:49:13;9.53;;;7.50;;
9294;SDS011;4686;44.496;11.324;2023-02-26T09:51:43;13.93;;;8.30;;
9294;SDS011;4686;44.496;11.324;2023-02-26T09:54:14;13.50;;;9.00;;
9294;SDS011;4686;44.496;11.324;2023-02-26T09:56:42;14.83;;;10.50;;
9294;SDS011;4686;44.496;11.324;2023-02-26T09:59:10;12.90;;;5.70;;
9294;SDS011;4686;44.496;11.324;2023-02-26T10:01:39;14.30;;;4.87;;
9294;SDS011;4686;44.496;11.324;2023-02-26T10:04:13;7.50;;;6.77;;
9294;SDS011;4686;44.496;11.324;2023-02-26T10:06:46;12.43;;;6.50;;
9294;SDS011;4686;44.496;11.324;2023-02-26T10:09:28;9.50;;;6.50;;
9294;SDS011;4686;44.496;11.324;2023-02-26T10:11:58;11.33;;;7.67;;
9294;SDS011;4686;44.496;11.324;2023-02-26T10:14:27;6.67;;;5.23;;
9294;SDS011;4686;44.496;11.324;2023-02-26T10:16:59;8.13;;;4.83;;
9294;SDS011;4686;44.496;11.324;2023-02-26T10:19:28;10.33;;;6.10;;
9294;SDS011;4686;44.496;11.324;2023-02-26T10:21:59;15.80;;;9.00;;
9294;SDS011;4686;44.496;11.324;2023-02-26T10:24:29;7.30;;;6.60;;
9294;SDS011;4686;44.496;11.324;2023-02-26T10:26:59;9.23;;;5.00;;
9294;SDS011;4686;44.496;11.324;2023-02-26T10:29:31;22.23;;;16.80;;
9294;SDS011;4686;44.496;11.324;2023-02-26T10:32:04;8.80;;;4.90;;
9294;SDS011;4686;44.496;11.324;2023-02-26T10:34:34;6.30;;;5.67;;
9294;SDS011;4686;44.496;11.324;2023-02-26T10:37:03;15.57;;;10.37;;
9294;SDS011;4686;44.496;11.324;2023-02-26T10:39:33;7.20;;;5.37;;
9294;SDS011;4686;44.496;11.324;2023-02-26T10:42:06;11.47;;;7.30;;
9294;SDS011;4686;44.496;11.324;2023-02-26T10:44:37;10.20;;;5.97;;
9294;SDS011;4686;44.496;11.324;2023-02-26T10:47:09;7.33;;;5.17;;
9294;SDS011;4686;44.496;11.324;2023-02-26T10:52:24;7.40;;;5.93;;
9294;SDS011;4686;44.496;11.324;2023-02-26T10:55:00;9.30;;;5.07;;
9294;SDS011;4686;44.496;11.324;2023-02-26T10:57:29;5.00;;;4.60;;
9294;SDS011;4686;44.496;11.324;2023-02-26T10:59:57;12.23;;;7.97;;
9294;SDS011;4686;44.496;11.324;2023-02-26T11:02:36;12.30;;;5.97;;
9294;SDS011;4686;44.496;11.324;2023-02-26T11:05:04;29.97;;;19.03;;
9294;SDS011;4686;44.496;11.324;2023-02-26T11:07:31;32.73;;;20.43;;
9294;SDS011;4686;44.496;11.324;2023-02-26T11:10:00;12.63;;;6.23;;
9294;SDS011;4686;44.496;11.324;2023-02-26T11:12:29;6.43;;;5.80;;
9294;SDS011;4686;44.496;11.324;2023-02-26T11:14:59;8.63;;;6.43;;
9294;SDS011;4686;44.496;11.324;2023-02-26T11:17:27;8.07;;;5.70;;
9294;SDS011;4686;44.496;11.324;2023-02-26T11:19:58;6.20;;;5.20;;
9294;SDS011;4686;44.496;11.324;2023-02-26T11:22:31;14.07;;;8.03;;
9294;SDS011;4686;44.496;11.324;2023-02-26T11:25:00;11.17;;;6.90;;
9294;SDS011;4686;44.496;11.324;2023-02-26T11:27:29;12.77;;;6.80;;
9294;SDS011;4686;44.496;11.324;2023-02-26T11:29:58;7.50;;;5.60;;
9294;SDS011;4686;44.496;11.324;2023-02-26T11:32:28;12.27;;;6.30;;
9294;SDS011;4686;44.496;11.324;2023-02-26T11:34:55;13.47;;;8.13;;
9294;SDS011;4686;44.496;11.324;2023-02-26T11:37:27;9.07;;;6.20;;
9294;SDS011;4686;44.496;11.324;2023-02-26T11:39:55;12.87;;;7.73;;
9294;SDS011;4686;44.496;11.324;2023-02-26T11:42:23;13.90;;;6.93;;
9294;SDS011;4686;44.496;11.324;2023-02-26T11:44:51;9.90;;;5.90;;
9294;SDS011;4686;44.496;11.324;2023-02-26T11:47:19;14.40;;;7.03;;
9294;SDS011;4686;44.496;11.324;2023-02-26T11:49:49;8.60;;;6.47;;
9294;SDS011;4686;44.496;11.324;2023-02-26T11:52:19;14.03;;;8.33;;
9294;SDS011;4686;44.496;11.324;2023-02-26T11:54:49;14.80;;;9.03;;
9294;SDS011;4686;44.496;11.324;2023-02-26T11:57:17;10.93;;;7.17;;
9294;SDS011;4686;44.496;11.324;2023-02-26T11:59:47;10.37;;;6.50;;
9294;SDS011;4686;44.496;11.324;2023-02-26T12:02:14;11.20;;;5.43;;
9294;SDS011;4686;44.496;11.324;2023-02-26T12:04:44;17.70;;;7.43;;
9294;SDS011;4686;44.496;11.324;2023-02-26T12:07:16;6.80;;;5.97;;
9294;SDS011;4686;44.496;11.324;2023-02-26T12:09:43;11.33;;;7.67;;
9294;SDS011;4686;44.496;11.324;2023-02-26T12:12:16;11.83;;;7.00;;
9294;SDS011;4686;44.496;11.324;2023-02-26T12:14:52;6.67;;;6.00;;
9294;SDS011;4686;44.496;11.324;2023-02-26T12:17:29;12.03;;;6.70;;
9294;SDS011;4686;44.496;11.324;2023-02-26T12:19:59;10.90;;;6.50;;
9294;SDS011;4686;44.496;11.324;2023-02-26T12:22:42;18.47;;;9.10;;
9294;SDS011;4686;44.496;11.324;2023-02-26T12:25:25;7.00;;;6.30;;
9294;SDS011;4686;44.496;11.324;2023-02-26T12:28:00;6.47;;;5.63;;
9294;SDS011;4686;44.496;11.324;2023-02-26T12:30:35;8.97;;;7.40;;
9294;SDS011;4686;44.496;11.324;2023-02-26T12:33:09;8.93;;;5.93;;
9294;SDS011;4686;44.496;11.324;2023-02-26T12:35:40;9.70;;;8.17;;
9294;SDS011;4686;44.496;11.324;2023-02-26T12:38:14;9.03;;;5.50;;
9294;SDS011;4686;44.496;11.324;2023-02-26T12:40:46;10.40;;;6.40;;
9294;SDS011;4686;44.496;11.324;2023-02-26T12:43:18;8.83;;;6.03;;
9294;SDS011;4686;44.496;11.324;2023-02-26T12:45:50;13.10;;;7.03;;
9294;SDS011;4686;44.496;11.324;2023-02-26T12:48:36;5.90;;;5.30;;
9294;SDS011;4686;44.496;11.324;2023-02-26T12:51:11;10.10;;;7.20;;
9294;SDS011;4686;44.496;11.324;2023-02-26T12:54:03;15.23;;;7.23;;
9294;SDS011;4686;44.496;11.324;2023-02-26T12:56:38;6.00;;;5.40;;
9294;SDS011;4686;44.496;11.324;2023-02-26T12:59:18;10.77;;;6.23;;
9294;SDS011;4686;44.496;11.324;2023-02-26T13:01:52;15.43;;;6.40;;
9294;SDS011;4686;44.496;11.324;2023-02-26T13:04:31;10.60;;;7.40;;
9294;SDS011;4686;44.496;11.324;2023-02-26T13:07:06;6.70;;;5.70;;
9294;SDS011;4686;44.496;11.324;2023-02-26T13:09:39;10.13;;;5.70;;
9294;SDS011;4686;44.496;11.324;2023-02-26T13:12:19;6.43;;;5.13;;
9294;SDS011;4686;44.496;11.324;2023-02-26T13:14:53;6.60;;;6.10;;
9294;SDS011;4686;44.496;11.324;2023-02-26T13:17:24;15.03;;;5.73;;
9294;SDS011;4686;44.496;11.324;2023-02-26T13:19:54;7.93;;;5.90;;
9294;SDS011;4686;44.496;11.324;2023-02-26T13:22:23;6.83;;;5.00;;
9294;SDS011;4686;44.496;11.324;2023-02-26T13:24:53;10.17;;;5.57;;
9294;SDS011;4686;44.496;11.324;2023-02-26T13:27:23;6.07;;;5.43;;
9294;SDS011;4686;44.496;11.324;2023-02-26T13:29:55;6.80;;;6.20;;
9294;SDS011;4686;44.496;11.324;2023-02-26T13:32:25;7.53;;;5.83;;
9294;SDS011;4686;44.496;11.324;2023-02-26T13:34:53;8.23;;;5.60;;
9294;SDS011;4686;44.496;11.324;2023-02-26T13:37:23;6.80;;;5.40;;
9294;SDS011;4686;44.496;11.324;2023-02-26T13:39:55;9.67;;;7.53;;
9294;SDS011;4686;44.496;11.324;2023-02-26T13:42:26;7.63;;;6.07;;
9294;SDS011;4686;44.496;11.324;2023-02-26T13:45:01;7.77;;;7.00;;
9294;SDS011;4686;44.496;11.324;2023-02-26T13:47:33;9.57;;;6.50;;
9294;SDS011;4686;44.496;11.324;2023-02-26T13:50:13;9.40;;;6.50;;
9294;SDS011;4686;44.496;11.324;2023-02-26T13:52:49;7.10;;;6.47;;
9294;SDS011;4686;44.496;11.324;2023-02-26T13:58:07;8.03;;;6.43;;
9294;SDS011;4686;44.496;11.324;2023-02-26T14:00:46;10.40;;;6.87;;
9294;SDS011;4686;44.496;11.324;2023-02-26T14:03:29;13.37;;;6.70;;
9294;SDS011;4686;44.496;11.324;2023-02-26T14:06:06;15.43;;;7.30;;
9294;SDS011;4686;44.496;11.324;2023-02-26T14:08:43;11.80;;;6.03;;
9294;SDS011;4686;44.496;11.324;2023-02-26T14:11:24;7.27;;;5.87;;
9294;SDS011;4686;44.496;11.324;2023-02-26T14:14:05;6.83;;;5.57;;
9294;SDS011;4686;44.496;11.324;2023-02-26T14:16:34;10.90;;;6.03;;
9294;SDS011;4686;44.496;11.324;2023-02-26T14:19:02;7.30;;;5.40;;
9294;SDS011;4686;44.496;11.324;2023-02-26T14:21:47;8.63;;;6.87;;
9294;SDS011;4686;44.496;11.324;2023-02-26T14:24:15;9.37;;;5.50;;
9294;SDS011;4686;44.496;11.324;2023-02-26T14:26:46;6.30;;;5.60;;
9294;SDS011;4686;44.496;11.324;2023-02-26T14:29:19;6.73;;;5.87;;
9294;SDS011;4686;44.496;11.324;2023-02-26T14:34:30;6.03;;;5.43;;
9294;SDS011;4686;44.496;11.324;2023-02-26T14:37:00;7.73;;;5.73;;
9294;SDS011;4686;44.496;11.324;2023-02-26T14:39:33;7.43;;;5.73;;
9294;SDS011;4686;44.496;11.324;2023-02-26T14:42:02;6.23;;;5.67;;
9294;SDS011;4686;44.496;11.324;2023-02-26T14:44:33;5.90;;;5.33;;
9294;SDS011;4686;44.496;11.324;2023-02-26T14:47:02;6.83;;;5.57;;
9294;SDS011;4686;44.496;11.324;2023-02-26T14:49:31;6.57;;;5.90;;
9294;SDS011;4686;44.496;11.324;2023-02-26T14:52:03;6.77;;;5.93;;
9294;SDS011;4686;44.496;11.324;2023-02-26T14:54:39;7.00;;;6.40;;
9294;SDS011;4686;44.496;11.324;2023-02-26T14:57:14;5.67;;;5.17;;
9294;SDS011;4686;44.496;11.324;2023-02-26T14:59:58;8.07;;;6.90;;
9294;SDS011;4686;44.496;11.324;2023-02-26T15:02:37;6.87;;;6.27;;
9294;SDS011;4686;44.496;11.324;2023-02-26T15:05:22;8.30;;;6.57;;
9294;SDS011;4686;44.496;11.324;2023-02-26T15:07:55;7.20;;;6.50;;
9294;SDS011;4686;44.496;11.324;2023-02-26T15:10:32;8.57;;;6.83;;
9294;SDS011;4686;44.496;11.324;2023-02-26T15:13:14;6.27;;;5.70;;
9294;SDS011;4686;44.496;11.324;2023-02-26T15:15:47;8.03;;;7.10;;
9294;SDS011;4686;44.496;11.324;2023-02-26T15:18:30;8.30;;;7.03;;
9294;SDS011;4686;44.496;11.324;2023-02-26T15:21:05;10.33;;;6.43;;
9294;SDS011;4686;44.496;11.324;2023-02-26T15:23:36;5.97;;;5.50;;
9294;SDS011;4686;44.496;11.324;2023-02-26T15:26:04;7.10;;;6.17;;
9294;SDS011;4686;44.496;11.324;2023-02-26T15:28:33;6.93;;;6.13;;